createdAt,value
2018-05-24T00:00:33.374Z,101265
2018-05-24T00:05:36.852Z,101269
2018-05-24T00:10:39.943Z,101265
2018-05-24T00:15:43.017Z,101269
2018-05-24T00:20:46.874Z,101269
2018-05-24T00:25:51.297Z,101261
2018-05-24T00:30:55.900Z,101252
2018-05-24T00:36:00.122Z,101247
2018-05-24T00:41:04.572Z,101251
2018-05-24T00:46:08.442Z,101246
2018-05-24T00:51:11.914Z,101245
2018-05-24T00:56:16.354Z,101244
2018-05-24T01:01:19.835Z,101235
2018-05-24T01:06:22.909Z,101228
2018-05-24T01:11:26.007Z,101223
2018-05-24T01:16:29.098Z,101223
2018-05-24T01:21:32.950Z,101216
2018-05-24T01:26:36.031Z,101217
2018-05-24T01:31:40.465Z,101215
2018-05-24T01:37:01.593Z,101217
2018-05-24T01:42:06.025Z,101222
2018-05-24T01:47:09.885Z,101221
2018-05-24T01:52:14.313Z,101217
2018-05-24T01:57:18.916Z,101210
2018-05-24T02:02:22.002Z,101210
2018-05-24T02:07:25.867Z,101208
2018-05-24T02:12:29.349Z,101217
2018-05-24T02:17:33.953Z,101214
2018-05-24T02:22:38.551Z,101210
2018-05-24T02:27:47.963Z,101203
2018-05-24T02:32:51.065Z,101211
2018-05-24T02:37:54.157Z,101212
2018-05-24T02:42:58.010Z,101216
2018-05-24T02:48:02.601Z,101218
2018-05-24T02:53:07.048Z,101210
2018-05-24T02:58:11.263Z,101207
2018-05-24T03:03:14.350Z,101209
2018-05-24T03:08:17.442Z,101203
2018-05-24T03:13:21.333Z,101206
2018-05-24T03:18:25.560Z,101205
2018-05-24T03:23:29.989Z,101205
2018-05-24T03:28:34.426Z,101203
2018-05-24T03:33:38.654Z,101198
2018-05-24T03:38:42.878Z,101200
2018-05-24T03:43:46.371Z,101202
2018-05-24T03:48:50.814Z,101204
2018-05-24T03:53:55.402Z,101202
2018-05-24T03:59:08.487Z,101198
2018-05-24T04:04:29.427Z,101197
2018-05-24T04:09:32.512Z,101196
2018-05-24T04:14:37.559Z,101191
2018-05-24T04:19:40.651Z,101191
2018-05-24T04:24:43.766Z,101191
2018-05-24T04:29:46.852Z,101176
2018-05-24T04:34:51.308Z,101177
2018-05-24T04:39:54.787Z,101183
2018-05-24T04:44:58.315Z,101193
2018-05-24T04:50:02.209Z,101186
2018-05-24T04:55:05.302Z,101197
2018-05-24T05:00:08.406Z,101198
2018-05-24T05:05:11.894Z,101195
2018-05-24T05:10:17.691Z,101194
2018-05-24T05:15:20.798Z,101196
2018-05-24T05:20:23.900Z,101188
2018-05-24T05:25:26.998Z,101191
2018-05-24T05:30:30.149Z,101194
2018-05-24T05:35:35.957Z,101195
2018-05-24T05:40:39.452Z,101204
2018-05-24T05:45:42.540Z,101203
2018-05-24T05:50:45.635Z,101201
2018-05-24T05:55:48.730Z,101195
2018-05-24T06:00:53.170Z,101202
2018-05-24T06:05:57.022Z,101205
2018-05-24T06:11:01.614Z,101205
2018-05-24T06:16:04.710Z,101211
2018-05-24T06:21:09.139Z,101210
2018-05-24T06:26:12.222Z,101214
2018-05-24T06:31:15.304Z,101222
2018-05-24T06:36:18.387Z,101229
2018-05-24T06:41:21.471Z,101231
2018-05-24T06:46:25.391Z,101238
2018-05-24T06:51:28.411Z,101234
2018-05-24T06:56:31.898Z,101232
2018-05-24T07:01:36.121Z,101245
2018-05-24T07:06:39.199Z,101240
2018-05-24T07:11:42.281Z,101245
2018-05-24T07:16:46.731Z,101248
2018-05-24T07:21:49.825Z,101243
2018-05-24T07:26:53.295Z,101247
2018-05-24T07:31:56.378Z,101245
2018-05-24T07:36:59.463Z,101235
2018-05-24T07:42:03.902Z,101225
2018-05-24T07:47:07.378Z,101224
2018-05-24T07:52:10.859Z,101236
2018-05-24T07:57:14.338Z,101227
2018-05-24T08:02:18.558Z,101225
2018-05-24T08:07:22.983Z,101228
2018-05-24T08:12:26.455Z,101234
2018-05-24T08:17:29.528Z,101228
2018-05-24T08:22:33.415Z,101217
2018-05-24T08:27:37.805Z,101229
2018-05-24T08:32:41.655Z,101226
2018-05-24T08:37:45.879Z,101218
2018-05-24T08:42:48.957Z,101215
2018-05-24T08:47:52.065Z,101219
2018-05-24T08:52:56.482Z,101205
2018-05-24T08:57:59.563Z,101202
2018-05-24T09:03:02.637Z,101175
2018-05-24T09:08:07.074Z,101174
2018-05-24T09:13:10.926Z,101171
2018-05-24T09:18:14.766Z,101172
2018-05-24T09:23:17.853Z,101174
2018-05-24T09:28:21.697Z,101179
2018-05-24T09:33:26.117Z,101180
2018-05-24T09:38:30.708Z,101181
2018-05-24T09:43:33.795Z,101179
2018-05-24T09:48:36.867Z,101179
2018-05-24T09:53:39.947Z,101180
2018-05-24T09:58:43.793Z,101179
2018-05-24T10:03:48.218Z,101181
2018-05-24T10:08:52.067Z,101164
2018-05-24T10:13:55.906Z,101171
2018-05-24T10:18:58.992Z,101166
2018-05-24T10:24:02.074Z,101171
2018-05-24T10:29:05.924Z,101168
2018-05-24T10:34:09.007Z,101162
2018-05-24T10:39:12.855Z,101155
2018-05-24T10:44:15.933Z,101149
2018-05-24T10:49:19.773Z,101155
2018-05-24T10:54:24.202Z,101142
2018-05-24T10:59:28.797Z,101145
2018-05-24T11:04:31.872Z,101149
2018-05-24T11:09:34.948Z,101146
2018-05-24T11:14:38.023Z,101144
2018-05-24T11:19:41.110Z,101141
2018-05-24T11:24:45.533Z,101141
2018-05-24T11:29:49.012Z,101140
2018-05-24T11:34:53.232Z,101143
2018-05-24T11:39:57.081Z,101135
2018-05-24T11:45:00.157Z,101137
2018-05-24T11:50:04.013Z,101137
2018-05-24T11:55:07.086Z,101124
2018-05-24T12:00:10.165Z,101128
2018-05-24T12:05:14.010Z,101119
2018-05-24T12:10:17.111Z,101127
2018-05-24T12:15:20.307Z,101119
2018-05-24T12:20:23.283Z,101116
2018-05-24T12:25:27.716Z,101111
2018-05-24T12:30:31.567Z,101100
2018-05-24T12:35:36.121Z,101101
2018-05-24T12:40:39.502Z,101091
2018-05-24T12:45:44.099Z,101087
2018-05-24T12:50:48.788Z,101083
2018-05-24T12:55:52.261Z,101080
2018-05-24T13:00:55.358Z,101078
2018-05-24T13:05:58.438Z,101070
2018-05-24T13:11:01.519Z,101067
2018-05-24T13:16:05.370Z,101069
2018-05-24T13:21:09.978Z,101065
2018-05-24T13:26:13.454Z,101072
2018-05-24T13:31:17.924Z,101069
2018-05-24T13:36:21.006Z,101071
2018-05-24T13:41:25.450Z,101058
2018-05-24T13:46:28.518Z,101060
2018-05-24T13:51:32.380Z,101050
2018-05-24T13:56:36.602Z,101048
2018-05-24T14:01:39.738Z,101046
2018-05-24T14:06:44.118Z,101039
2018-05-24T14:11:47.598Z,101045
2018-05-24T14:16:50.686Z,101035
2018-05-24T14:21:54.537Z,101030
2018-05-24T14:26:57.630Z,101022
2018-05-24T14:32:00.713Z,101012
2018-05-24T14:37:04.570Z,101006
2018-05-24T14:42:07.652Z,101004
2018-05-24T14:47:10.730Z,101007
2018-05-24T14:52:14.574Z,101006
2018-05-24T14:57:18.804Z,101004
2018-05-24T15:02:21.886Z,101006
2018-05-24T15:07:26.326Z,101000
2018-05-24T15:12:30.763Z,100996
2018-05-24T15:17:34.236Z,100988
2018-05-24T15:22:38.826Z,100988
2018-05-24T15:27:42.670Z,100980
2018-05-24T15:32:45.764Z,100984
2018-05-24T15:37:49.987Z,100975
2018-05-24T15:42:53.465Z,100976
2018-05-24T15:47:57.728Z,100974
2018-05-24T15:53:00.802Z,100969
2018-05-24T15:58:03.914Z,100970
2018-05-24T16:03:07.009Z,100969
2018-05-24T16:08:10.082Z,100964
2018-05-24T16:13:13.170Z,100953
2018-05-24T16:18:17.386Z,100941
2018-05-24T16:23:20.470Z,100947
2018-05-24T16:28:23.546Z,100956
2018-05-24T16:33:27.414Z,100963
2018-05-24T16:38:31.844Z,100971
2018-05-24T16:43:35.753Z,100973
2018-05-24T16:48:39.970Z,100968
2018-05-24T16:53:44.340Z,100969
2018-05-24T16:58:48.773Z,100980
2018-05-24T17:03:51.858Z,100979
2018-05-24T17:08:56.075Z,100971
2018-05-24T17:13:59.174Z,100975
2018-05-24T17:19:03.026Z,100960
2018-05-24T17:24:07.458Z,100959
2018-05-24T17:29:11.306Z,100967
2018-05-24T17:34:15.154Z,100972
2018-05-24T17:39:19.007Z,100974
2018-05-24T17:44:23.438Z,100982
2018-05-24T17:49:27.865Z,100992
2018-05-24T17:54:30.946Z,100992
2018-05-24T17:59:34.028Z,100990
2018-05-24T18:04:37.102Z,100995
2018-05-24T18:09:41.327Z,100997
2018-05-24T18:14:45.174Z,100999
2018-05-24T18:19:48.268Z,101014
2018-05-24T18:24:51.747Z,101025
2018-05-24T18:29:55.222Z,101031
2018-05-24T18:34:59.654Z,101035
2018-05-24T18:40:02.751Z,101032
2018-05-24T18:45:06.244Z,101044
2018-05-24T18:50:09.715Z,101051
2018-05-24T18:55:12.815Z,101051
2018-05-24T19:00:17.406Z,101055
2018-05-24T19:05:20.483Z,101062
2018-05-24T19:10:23.583Z,101057
2018-05-24T19:15:27.057Z,101057
2018-05-24T19:20:30.529Z,101059
2018-05-24T19:25:35.123Z,101062
2018-05-24T19:30:39.719Z,101067
2018-05-24T19:35:43.037Z,101069
2018-05-24T19:40:47.999Z,101070
2018-05-24T19:45:52.430Z,101085
2018-05-24T19:50:55.529Z,101097
2018-05-24T19:55:58.625Z,101099
2018-05-24T20:01:01.726Z,101095
2018-05-24T20:06:05.575Z,101107
2018-05-24T20:11:09.797Z,101108
2018-05-24T20:16:12.890Z,101112
2018-05-24T20:21:17.122Z,101107
2018-05-24T20:26:20.591Z,101113
2018-05-24T20:31:24.329Z,101111
2018-05-24T20:36:27.818Z,101104
2018-05-24T20:41:30.908Z,101104
2018-05-24T20:46:35.338Z,101104
2018-05-24T20:51:38.822Z,101098
2018-05-24T20:56:41.918Z,101100
2018-05-24T21:01:46.527Z,101104
2018-05-24T21:06:51.015Z,101099
2018-05-24T21:11:55.433Z,101096
2018-05-24T21:17:00.021Z,101092
2018-05-24T21:22:03.104Z,101094
2018-05-24T21:27:06.588Z,101088
2018-05-24T21:32:10.071Z,101086
2018-05-24T21:37:13.554Z,101081
2018-05-24T21:42:17.786Z,101078
2018-05-24T21:47:20.882Z,101077
2018-05-24T21:52:24.746Z,101070
2018-05-24T21:57:27.845Z,101072
2018-05-24T22:02:32.289Z,101068
2018-05-24T22:07:36.725Z,101069
2018-05-24T22:12:39.819Z,101073
2018-05-24T22:17:42.915Z,101082
2018-05-24T22:22:46.776Z,101086
2018-05-24T22:27:50.262Z,101093
2018-05-24T22:32:54.122Z,101102
2018-05-24T22:37:57.236Z,101106
2018-05-24T22:43:00.346Z,101109
2018-05-24T22:48:03.446Z,101110
2018-05-24T22:53:07.678Z,101111
2018-05-24T22:58:10.782Z,101112
2018-05-24T23:03:15.420Z,101104
2018-05-24T23:08:19.234Z,101093
2018-05-24T23:13:22.327Z,101088
2018-05-24T23:18:25.816Z,101089
2018-05-24T23:23:29.674Z,101084
2018-05-24T23:28:34.235Z,101079
2018-05-24T23:33:37.719Z,101072
2018-05-24T23:38:42.163Z,101082
2018-05-24T23:43:45.255Z,101084
2018-05-24T23:48:48.769Z,101087
2018-05-24T23:53:53.213Z,101092
2018-05-24T23:58:57.651Z,101091
